Waco Regional Airport
KACT : now visible

Airfield :











YOU CAN JOIN US ON...

 
LOGIN :

Register | Disclaimer

   EN    FR    IT 

 









Legend :    VFR   Marginal VFR   IFR   Intensive IFR   Very Intensive IFR
Visi :
Ceiling :
>= 8 km
>= 3000ft
5 to 8 km
1000 to 3000 ft
1500m to 5 km
500 to 1000 ft
800 to 1500m
200 to 500 ft
< 800m
< 200 ft
Symbols :   Thunderstorms  Fog  Heavy snow  Heavy precipitations  Wind > 20 kt






- Airport Elevation : 516 ft
- IATA code : ACT


KACT - Waco Regional

CURRENT METAR :
  • 080351Z 18008KT 9SM CLR 24/21 A2988 RMK AO2 SLP110 T02440211

EXPIRED METARs :
  • 080251Z 18009KT 10SM CLR 25/21 A2987 RMK AO2 SLP108 T02500211 53009
  • 080151Z 18007KT 10SM CLR 26/21 A2985 RMK AO2 SLP102 T02560211

TAF KACT
Valid from the 08 at 03:00 until the 09 at 00:00 UTC


080252Z 0803/0824 19010KT P6SM FEW250
FM081500 24012KT P6SM SCT250



MET'MAP, your aeronautical weather chart ! - Copyright ORBIFLY December 2007 - Disclaimer

ORBIFLY MET'MAP TEAM :

Programming & Development : Alexandra Zaïnal
Concept & original design : Baudouin d'Aumeries
Assistance for programming : Marc-Olivier Méhu
Technical & hardware support : Manuel Goepfert

Contact : metmap@orbifly.com




SOURCES & CREDITS :

   NOAA       Earth
Advisory